• Join FlightAware (Why Join?)
  • Login
  • US Flag 
03:54AM EST


 

Airport Tracker/Info


-or-


 

Live Flight TrackerFlight Track Log ✈ SWA3943 ✈ 31-May-2013 ✈ KCMH - KBWI

Flight Track Log - Related Links

Times and Time Zones

All times are in EDT time to prevent confusion due to time zone crossing. See the SWA3943 flight status page for this flight to view local times or setup timezone preferences in your user account.

Time Position Orientation Groundspeed Altitude Reporting Facility
EDT Latitude Longitude Course Direction KTS MPH feet Rate Location/Type
08:23PM 39.9969 -82.9314 276° West 163 188 2,300  Level Indianapolis Center
08:24PM 40.0053 -82.9808 282° West 184 212 3,800 2,640 Climbing Indianapolis Center
08:24PM 40.0089 -83.0033 282° West 203 234 5,000 2,460 Climbing Indianapolis Center
08:25PM 39.9911 -83.0392 237° Southwest 203 234 6,400 2,700 Climbing Indianapolis Center
08:25PM 39.9672 -83.0314 166° South 232 267 7,700 3,120 Climbing Indianapolis Center
08:26PM 39.9333 -82.9983 143° Southeast 247 284 9,600 2,040 Climbing Indianapolis Center
08:27PM 39.9325 -82.8875 91° East 304 350 11,400 2,340 Climbing Indianapolis Center
08:28PM 39.9358 -82.7708 88° East 317 365 14,400 2,820 Climbing Indianapolis Center
08:29PM 39.9428 -82.6492 86° East 331 381 17,200 2,340 Climbing Indianapolis Center
08:30PM 39.9489 -82.5253 86° East 338 389 19,200 2,040 Climbing Indianapolis Center
08:31PM 39.9547 -82.3925 87° East 360 414 21,500 2,340 Climbing Indianapolis Center
08:32PM 39.9625 -82.2400 86° East 359 413 24,000 1,980 Climbing Indianapolis Center
08:33PM 39.9675 -82.1014 87° East 375 432 25,600 1,260 Climbing Indianapolis Center
08:34PM 39.9739 -81.9575 87° East 393 452 26,700 1,020 Climbing Indianapolis Center
08:35PM 39.9800 -81.8056 87° East 413 475 27,800 1,020 Climbing Indianapolis Center
08:36PM 39.9867 -81.6475 87° East 438 504 28,900 540 Climbing Indianapolis Center
08:37PM 39.9919 -81.4844 88° East 447 514 29,000  Climbing Indianapolis Center
08:38PM 39.9967 -81.3161 88° East 458 527 29,000  Level Indianapolis Center
08:39PM 39.9736 -81.1522 100° East 459 528 29,000  Level Indianapolis Center
08:40PM 39.9483 -80.9750 100° East 452 520 29,000  Level Indianapolis Center
08:41PM 39.9250 -80.8183 101° East 442 509 29,000  Level Indianapolis Center
08:42PM 39.9169 -80.7347 97° East 443 510 29,000  Level Cleveland Center
08:43PM 39.8942 -80.5803 101° East 438 504 29,000  Level Cleveland Center
08:44PM 39.8711 -80.4233 101° East 433 498 29,000  Level Cleveland Center
08:45PM 39.8478 -80.2722 101° East 433 498 29,000  Level Cleveland Center
08:46PM 39.8244 -80.1181 101° East 433 498 29,000  Level Cleveland Center
08:47PM 39.8008 -79.9617 101° East 433 498 29,000  Level Cleveland Center
08:49PM 39.7569 -79.6808 101° East 442 509 29,000  Level Washington Center
08:50PM 39.7331 -79.5231 101° East 442 509 29,000 -60 Level Washington Center
08:51PM 39.7067 -79.3678 102° East 442 509 28,900 -1,020 Descending Washington Center
08:52PM 39.6842 -79.2183 101° East 433 498 27,000 -2,040 Descending Washington Center
08:53PM 39.6594 -79.0714 102° East 420 483 25,000 -1,020 Descending Washington Center
08:54PM 39.6242 -78.9108 106° East 418 481 25,000  Level Washington Center
08:55PM 39.5928 -78.7667 106° East 424 488 25,000 -720 Level Washington Center
08:56PM 39.5608 -78.6278 107° East 419 482 23,600 -1,980 Descending Washington Center
08:57PM 39.5289 -78.4867 106° East 400 460 21,200 -2,400 Descending Washington Center
08:58PM 39.4967 -78.3456 106° East 405 466 18,800 -2,400 Descending Washington Center
08:59PM 39.4664 -78.2125 106° East 399 459 16,400 -1,920 Descending Washington Center
09:00PM 39.4381 -78.0800 105° East 388 447 15,000 -720 Descending Washington Center
09:01PM 39.4178 -77.9422 101° East 383 441 15,000  Level Washington Center
09:02PM 39.4289 -77.8028 84° East 378 435 15,000 -180 Level Washington Center
09:03PM 39.4333 -77.6658 88° East 378 435 14,700 -1,320 Descending Washington Center
09:04PM 39.4397 -77.5344 86° East 378 435 12,400 -1,860 Descending Washington Center
09:05PM 39.4436 -77.4056 88° East 371 427 11,100 -960 Descending Washington Center
09:05PM 39.4500 -77.3500 82° East 319 367 11,000 -120 Descending Potomac TRACON
09:06PM 39.4667 -77.2333 79° East 311 358 11,000 -480 Level Potomac TRACON
09:07PM 39.4833 -77.1333 78° East 311 358 10,100 -1,020 Descending Potomac TRACON
09:08PM 39.4814 -77.0811 93° East 304 350 9,500 -1,200 Descending Washington Center
09:10PM 39.5167 -76.8167 80° East 296 341 6,500 -1,080 Descending Potomac TRACON
09:11PM 39.5167 -76.7167 90° East 264 304 6,000 -840 Descending Potomac TRACON
09:12PM 39.4833 -76.6667 131° Southeast 235 270 4,900 -960 Descending Potomac TRACON
09:13PM 39.4167 -76.6000 142° Southeast 230 265 4,000 -480 Descending Potomac TRACON
09:14PM 39.3833 -76.5500 131° Southeast 235 270 4,000 -540 Level Potomac TRACON
09:15PM 39.3333 -76.4833 134° Southeast 235 270 3,000 -540 Descending Potomac TRACON
09:16PM 39.3000 -76.4333 131° Southeast 199 229 3,000  Level Potomac TRACON
09:17PM 39.2667 -76.3667 123° Southeast 192 221 3,000  Level Potomac TRACON
09:18PM 39.2333 -76.3000 123° Southeast 195 224 3,000  Level Potomac TRACON
09:19PM 39.2000 -76.2833 159° South 180 207 3,000  Level Potomac TRACON
09:20PM 39.1667 -76.3167 218° Southwest 163 188 3,000  Level Potomac TRACON
09:21PM 39.1500 -76.3667 247° West 163 188 3,000  Level Potomac TRACON
09:22PM 39.1500 -76.4167 270° West 167 192 3,000 -180 Level Potomac TRACON
09:23PM 39.1667 -76.4833 288° West 162 186 2,700 -600 Descending Potomac TRACON
09:24PM 39.1667 -76.5333 270° West 156 180 1,900 -840 Descending Potomac TRACON